首页
METAR-TAF:

METAR-TAF

机场 :

拉瓜地亞機場

纽约 / 拉瓜地亞, 紐約州, 美国

纬度: 40-46-45N, 经度: 073-52-48W, 海拔: 6米

当前天气观测

该预报发布于56分钟前的11:51 UTC
风速16节,风向西转西北,有时为28节阵风
温度 -4°C
湿度 46%
气压 1023 hPa
能見度: 16.1公里
少量云层高于4000英尺

METAR: KLGA 241151Z 30016G28KT 10SM FEW040 M04/M14 A3021 RMK AO2 PK WND 30031/1102 SLP229 T10391139 11028 21039 53017

时间: 07:47 (12:47 UTC)

预报

该预报发布于1小时和15分钟前的11:32 UTC
预报有效从24日的 12点(UTC)到 25日的 18点(UTC)
风速17节,风向西北,有时为27节阵风
能見度: 10公里
少量云层高于4000英尺
从 24日的 1600点(UTC)
风速14节,风向西转西北,有时为24节阵风
能見度: 10公里
少量云层高于12000英尺
散云层高于25000英尺
从 24日的 2200点(UTC)
风速12节,风向西转西北,有时为19节阵风
能見度: 10公里
散云层高于12000英尺
多云层高于25000英尺
从 25日的 0200点(UTC)
风速12节,风向西北
能見度: 10公里
多云层高于12000英尺
多云层高于25000英尺
从 25日的 0700点(UTC)
风速8节,风向北转西北
能見度: 10公里
少量云层高于10000英尺
散云层高于25000英尺

TAF: KLGA 241132Z 2412/2518 31017G27KT P6SM FEW040 FM241600 30014G24KT P6SM FEW120 SCT250 FM242200 30012G19KT P6SM SCT120 BKN250 FM250200 32012KT P6SM BKN120 BKN250 FM250700 33008KT P6SM FEW100 SCT250

超过4000个机场的气象观测和天气预报(METAR&TAF报告)。

可查询的气象台以黄色和红色小点在地图上表示。

将鼠标移到小点上方,可查看气象台名称。

然后点击查看天气观测和预报。

如需切换地图:点击带黑十字的绿色按钮放大地图;点击带横线的绿色按钮缩小地图;或者点击绿色箭头查看邻近地区的地图。


METAR-TAF: